Time;durP1;ratioP1;P1;durP2;ratioP2;P2;SDS_P1;SDS_P2;PMS_P1;PMS_P2;Temp;Humidity;BMP_temperature;BMP_pressure;BME280_temperature;BME280_humidity;BME280_pressure;Samples;Min_cycle;Max_cycle;Signal;HPM_P1;HPM_P2
2022/06/20 00:00:18;;;;;;;6.57;4.40;;;28.20;51.80;;;-142.21;62.95;112049.66;5052144;28;20255;-73
2022/06/20 00:02:48;;;;;;;7.63;4.37;;;28.20;52.10;;;-142.21;62.78;112049.66;5052743;28;20220;-75
2022/06/20 00:05:23;;;;;;;6.17;4.60;;;28.20;52.00;;;-142.21;62.94;112049.66;5051954;28;20613;-76
2022/06/20 00:07:52;;;;;;;5.40;4.00;;;28.10;52.30;;;-142.21;63.97;112049.66;5052442;28;20637;-75
2022/06/20 00:10:23;;;;;;;7.53;4.57;;;27.90;52.50;;;-142.21;65.68;112049.66;5051641;28;20298;-76
2022/06/20 00:12:53;;;;;;;7.73;5.27;;;27.80;52.50;;;-142.21;66.80;112049.66;5051421;28;20256;-76
2022/06/20 00:15:34;;;;;;;6.30;4.63;;;27.80;53.10;;;-142.21;67.35;112049.66;5051973;28;20294;-73
2022/06/20 00:18:05;;;;;;;7.53;4.30;;;27.70;53.50;;;-142.21;67.02;112049.66;5052681;28;20187;-77
2022/06/20 00:20:33;;;;;;;8.10;4.43;;;27.70;53.30;;;-142.21;67.37;112049.66;5051901;28;20273;-75
2022/06/20 00:23:00;;;;;;;9.17;4.73;;;27.70;53.30;;;-142.21;67.54;112049.66;5051774;28;20772;-76
2022/06/20 00:25:28;;;;;;;8.20;4.30;;;27.70;53.30;;;-142.21;67.67;112049.66;5051487;28;20718;-74
2022/06/20 00:27:55;;;;;;;6.40;4.47;;;27.60;53.20;;;-142.21;68.49;112049.66;5052232;28;20229;-75
2022/06/20 00:30:25;;;;;;;6.33;4.13;;;27.60;54.20;;;-142.21;68.15;112049.66;5051278;28;20287;-74
2022/06/20 00:32:53;;;;;;;7.23;4.60;;;27.60;53.70;;;-142.21;68.10;112049.66;5051883;28;20658;-76
2022/06/20 00:35:27;;;;;;;9.80;4.63;;;27.60;53.70;;;-142.21;68.38;112049.66;5051807;28;20286;-75
2022/06/20 00:38:06;;;;;;;5.57;4.00;;;27.60;53.80;;;-142.21;68.99;112049.66;5052038;28;20203;-75
2022/06/20 00:40:39;;;;;;;8.03;4.40;;;27.60;54.30;;;-142.21;70.12;112049.66;5051988;28;20225;-76
2022/06/20 00:43:16;;;;;;;9.83;5.50;;;27.50;54.10;;;-142.21;70.66;112049.66;5052449;28;20223;-76
2022/06/20 00:45:50;;;;;;;7.80;4.57;;;27.40;54.60;;;-142.21;72.04;112049.66;5055359;28;20751;-75
2022/06/20 00:48:26;;;;;;;6.70;4.40;;;27.10;54.60;;;-142.21;72.80;112049.66;5055810;28;20255;-74
2022/06/20 00:51:02;;;;;;;7.23;4.70;;;27.10;54.90;;;-142.21;73.38;112049.66;5056481;28;20586;-75
2022/06/20 00:53:36;;;;;;;6.27;4.60;;;27.00;54.80;;;-142.21;73.79;112049.66;5055462;28;20276;-75
2022/06/20 00:56:13;;;;;;;7.57;4.63;;;26.90;54.90;;;-142.21;74.01;112049.66;5056027;28;20372;-75
2022/06/20 00:58:47;;;;;;;6.87;4.40;;;26.90;55.20;;;-142.21;73.85;112049.66;5056077;28;20200;-75
2022/06/20 01:01:29;;;;;;;7.30;4.43;;;26.80;55.30;;;-142.21;74.92;112049.66;5055563;28;20201;-75
2022/06/20 01:04:04;;;;;;;6.83;4.20;;;26.90;55.70;;;-142.21;74.25;112049.66;5055874;28;20730;-74
2022/06/20 01:06:38;;;;;;;5.93;4.30;;;26.90;55.70;;;-142.21;74.42;112049.66;5054946;28;20889;-75
2022/06/20 01:09:09;;;;;;;8.23;5.17;;;26.90;55.70;;;-142.21;73.84;112049.66;5055725;28;20187;-75
2022/06/20 01:11:45;;;;;;;9.07;4.80;;;26.90;55.70;;;-142.21;74.34;112049.66;5055440;28;20194;-75
2022/06/20 01:14:33;;;;;;;7.13;5.00;;;26.90;55.70;;;-142.21;74.49;112049.66;5055948;28;20201;-75
2022/06/20 01:17:12;;;;;;;8.23;4.83;;;26.90;56.00;;;-142.21;74.12;112049.66;5055792;28;20191;-75
2022/06/20 01:19:55;;;;;;;8.50;4.47;;;26.90;55.70;;;-142.21;74.65;112049.66;5055249;28;20284;-75
2022/06/20 01:22:41;;;;;;;7.90;4.53;;;26.80;56.10;;;-142.21;75.29;112049.66;5054313;28;20193;-75
2022/06/20 01:25:57;;;;;;;6.97;4.67;;;26.80;56.30;;;-142.21;75.95;112049.66;5055173;28;20272;-76
2022/06/20 01:28:34;;;;;;;6.90;4.43;;;26.80;56.50;;;-142.21;76.90;112049.66;5054756;28;20240;-74
2022/06/20 01:31:09;;;;;;;6.27;4.67;;;26.70;56.20;;;-142.21;77.52;112049.66;5055751;28;20195;-74
2022/06/20 01:33:38;;;;;;;7.40;4.60;;;26.70;56.40;;;-142.21;77.02;112049.66;5055056;28;20229;-73
2022/06/20 01:39:02;;;;;;;5.93;4.67;;;26.60;56.50;;;-142.21;76.75;112049.66;5055309;28;20190;-76
2022/06/20 01:44:20;;;;;;;6.63;4.43;;;26.60;56.90;;;-142.21;77.72;112049.66;5054679;28;20229;-74
2022/06/20 01:46:47;;;;;;;6.73;4.40;;;26.50;56.90;;;-142.21;78.44;112049.66;5055207;28;20210;-75
2022/06/20 01:49:20;;;;;;;7.50;4.77;;;26.50;56.80;;;-142.21;78.80;112049.66;5055087;28;20206;-75
2022/06/20 01:51:54;;;;;;;9.07;5.30;;;26.40;57.20;;;-142.21;80.05;112049.66;5054883;28;20194;-76
2022/06/20 01:54:26;;;;;;;9.07;5.50;;;26.30;57.70;;;-142.21;81.07;112049.66;5054116;28;20211;-74
2022/06/20 01:56:55;;;;;;;7.30;5.17;;;26.20;58.10;;;-142.21;81.80;112049.66;5055079;28;20210;-75
2022/06/20 01:59:31;;;;;;;7.10;4.60;;;26.10;58.00;;;-142.21;81.80;112049.66;5054250;28;20298;-75
2022/06/20 02:02:02;;;;;;;7.37;5.03;;;26.10;58.40;;;-142.21;81.56;112049.66;5054989;28;20204;-75
2022/06/20 02:04:36;;;;;;;6.17;5.13;;;26.10;58.30;;;-142.21;81.59;112049.66;5054156;28;20194;-75
2022/06/20 02:07:08;;;;;;;9.47;5.07;;;26.10;58.30;;;-142.21;81.57;112049.66;5054953;28;20268;-75
2022/06/20 02:09:41;;;;;;;9.10;5.00;;;26.10;58.10;;;-142.21;80.97;112049.66;5054207;28;20197;-75
2022/06/20 02:12:11;;;;;;;7.50;4.70;;;26.00;58.00;;;-142.21;81.85;112049.66;5054734;28;20198;-75
2022/06/20 02:14:45;;;;;;;6.40;4.53;;;26.10;58.40;;;-142.21;81.85;112049.66;5054139;28;20304;-75
2022/06/20 02:17:20;;;;;;;8.73;4.53;;;26.10;58.40;;;-142.21;82.40;112049.66;5054693;28;20193;-75
2022/06/20 02:19:54;;;;;;;5.73;4.23;;;26.10;58.60;;;-142.21;82.13;112049.66;5054225;28;20189;-75
2022/06/20 02:22:27;;;;;;;8.20;4.63;;;26.10;58.40;;;-142.21;82.00;112049.66;5054024;28;20208;-76
2022/06/20 02:25:02;;;;;;;5.33;4.30;;;26.00;58.10;;;-142.21;81.73;112049.66;5014156;28;20213;-76
2022/06/20 02:27:37;;;;;;;7.43;4.83;;;26.00;58.10;;;-142.21;81.57;112049.66;5034197;28;20264;-76
2022/06/20 02:30:10;;;;;;;7.93;4.50;;;25.90;58.00;;;-142.21;80.33;112049.66;5034135;28;20340;-75
2022/06/20 02:32:42;;;;;;;9.53;4.90;;;25.90;57.90;;;-142.21;79.58;112049.66;5033956;28;20277;-76
2022/06/20 02:35:16;;;;;;;8.63;5.03;;;25.90;57.90;;;-142.21;79.46;112049.66;5034018;28;20219;-76
2022/06/20 02:37:45;;;;;;;9.13;4.93;;;25.90;57.90;;;-142.21;78.97;112049.66;5034098;28;20273;-75
2022/06/20 02:40:21;;;;;;;5.13;4.20;;;26.00;57.80;;;-142.21;77.73;112049.66;5034716;28;20301;-75
2022/06/20 02:43:05;;;;;;;7.70;4.17;;;26.00;57.60;;;-142.21;75.52;112049.66;5034230;28;20269;-75
2022/06/20 02:45:42;;;;;;;5.13;3.60;;;26.10;57.00;;;-142.21;73.74;112049.66;5033205;28;20319;-76
2022/06/20 02:48:12;;;;;;;6.37;4.00;;;26.10;57.00;;;-142.21;72.57;112049.66;5033356;28;20210;-75
2022/06/20 02:50:48;;;;;;;5.10;3.47;;;26.10;56.10;;;-142.21;72.33;112049.66;5033588;28;20218;-75
2022/06/20 02:53:23;;;;;;;6.93;3.90;;;26.10;56.10;;;-142.21;71.69;112049.66;5034167;28;20286;-75
2022/06/20 02:55:52;;;;;;;9.07;3.80;;;26.10;55.70;;;-142.21;70.80;112049.66;5065220;28;20233;-76
2022/06/20 02:58:29;;;;;;;6.03;3.33;;;26.20;55.50;;;-142.21;70.35;112049.66;5033712;28;20202;-76
2022/06/20 03:01:07;;;;;;;9.27;3.77;;;26.20;55.30;;;-142.21;69.44;112049.66;5076388;28;20204;-75
2022/06/20 03:03:43;;;;;;;6.17;3.80;;;26.20;55.00;;;-142.21;69.30;112049.66;5052897;28;20196;-75
2022/06/20 03:06:21;;;;;;;6.57;3.43;;;26.20;55.00;;;-142.21;68.59;112049.66;5053351;28;20220;-75
2022/06/20 03:08:48;;;;;;;7.07;3.70;;;26.20;54.70;;;-142.21;67.99;112049.66;5053544;28;20225;-76
2022/06/20 03:11:18;;;;;;;4.90;3.50;;;26.30;54.60;;;-142.21;67.72;112049.66;5054996;28;20229;-76
2022/06/20 03:13:46;;;;;;;6.40;3.93;;;26.30;54.40;;;-142.21;66.72;112049.66;5052722;28;20673;-75
2022/06/20 03:16:15;;;;;;;5.37;3.20;;;26.20;54.20;;;-142.21;66.55;112049.66;5053452;28;20205;-76
2022/06/20 03:18:50;;;;;;;8.17;3.27;;;26.30;54.10;;;-142.21;65.71;112049.66;5052212;28;20305;-74
2022/06/20 03:21:24;;;;;;;6.73;2.93;;;26.20;53.90;;;-142.21;65.32;112049.66;5053216;28;20204;-76
2022/06/20 03:23:52;;;;;;;3.90;3.20;;;26.20;53.90;;;-142.21;65.49;112049.66;5053290;28;20190;-75
2022/06/20 03:26:26;;;;;;;7.33;3.40;;;26.20;53.90;;;-142.21;65.60;112049.66;5053140;28;20355;-75
2022/06/20 03:28:55;;;;;;;8.57;3.10;;;26.20;53.80;;;-142.21;64.46;112049.66;5052705;28;20697;-76
2022/06/20 03:31:24;;;;;;;7.33;2.70;;;26.20;53.60;;;-142.21;64.38;112049.66;5052607;28;20651;-75
2022/06/20 03:33:51;;;;;;;4.73;2.63;;;26.20;53.50;;;-142.21;63.71;112049.66;5052970;28;20742;-76
2022/06/20 03:36:25;;;;;;;5.47;3.17;;;26.20;53.20;;;-142.21;63.74;112049.66;5052961;28;20297;-75
2022/06/20 03:38:54;;;;;;;3.83;2.97;;;26.10;53.30;;;-142.21;63.78;112049.66;5052916;28;20201;-75
2022/06/20 03:41:26;;;;;;;6.47;3.30;;;26.10;53.20;;;-142.21;63.88;112049.66;5053119;28;20297;-75
2022/06/20 03:44:03;;;;;;;6.13;3.17;;;26.10;53.10;;;-142.21;63.70;112049.66;5052902;28;20226;-75
2022/06/20 03:46:53;;;;;;;5.93;2.70;;;26.10;52.90;;;-142.21;63.39;112049.66;5051662;28;20752;-75
2022/06/20 03:49:27;;;;;;;7.73;3.10;;;26.00;52.90;;;-142.21;63.94;112049.66;5053064;28;20186;-76
2022/06/20 03:52:02;;;;;;;4.87;2.43;;;26.00;52.90;;;-142.21;63.57;112049.66;5052981;28;20294;-76
2022/06/20 03:54:44;;;;;;;7.00;3.23;;;26.00;53.00;;;-142.21;63.62;112049.66;5052193;28;20691;-75
2022/06/20 03:57:20;;;;;;;4.60;2.70;;;25.90;52.90;;;-142.21;63.44;112049.66;5052803;28;20245;-75
2022/06/20 03:59:56;;;;;;;5.77;2.40;;;25.90;52.80;;;-142.21;63.49;112049.66;5052227;28;20197;-76
2022/06/20 04:02:33;;;;;;;4.30;2.50;;;25.90;52.80;;;-142.21;63.69;112049.66;5052562;28;20189;-75
2022/06/20 04:05:11;;;;;;;6.30;3.40;;;25.90;52.90;;;-142.21;63.95;112049.66;5052649;28;20292;-75
2022/06/20 04:07:47;;;;;;;4.80;2.73;;;25.90;52.90;;;-142.21;63.97;112049.66;5052026;28;20300;-74
2022/06/20 04:13:17;;;;;;;9.60;2.93;;;25.90;53.10;;;-142.21;65.49;112049.66;5052597;28;20665;-75
2022/06/20 04:15:52;;;;;;;6.63;2.93;;;25.80;53.20;;;-142.21;64.72;112049.66;5051715;28;20267;-75
2022/06/20 04:18:27;;;;;;;5.90;2.70;;;25.80;53.60;;;-142.21;66.88;112049.66;5019479;28;20205;-74
2022/06/20 04:21:09;;;;;;;6.17;2.90;;;25.70;53.40;;;-142.21;67.92;112049.66;5052759;28;20198;-75
2022/06/20 04:23:43;;;;;;;7.70;2.87;;;25.70;53.90;;;-142.21;66.54;112049.66;5051800;28;20190;-76
2022/06/20 04:26:21;;;;;;;6.77;2.73;;;25.70;53.60;;;-142.21;66.37;112049.66;5052279;28;20239;-74
2022/06/20 04:29:01;;;;;;;5.53;2.60;;;25.70;53.80;;;-142.21;66.43;112049.66;5051508;28;20241;-75
2022/06/20 04:31:46;;;;;;;6.70;2.70;;;25.70;53.60;;;-142.21;66.54;112049.66;5051494;28;20187;-74
2022/06/20 04:34:21;;;;;;;8.13;3.30;;;25.70;53.90;;;-142.21;65.57;112049.66;5018303;28;20205;-75
2022/06/20 04:37:02;;;;;;;5.10;2.77;;;25.70;53.50;;;-142.21;67.10;112049.66;5017274;28;20284;-75
2022/06/20 04:39:40;;;;;;;6.50;2.87;;;25.50;54.20;;;-142.21;69.49;112049.66;5051832;28;20273;-74
2022/06/20 04:42:18;;;;;;;7.77;3.47;;;25.40;54.50;;;-142.21;69.75;112049.66;5052410;28;20182;-74
2022/06/20 04:44:54;;;;;;;12.30;3.77;;;25.50;54.80;;;-142.21;74.38;112049.66;5051345;28;20643;-75
2022/06/20 04:47:38;;;;;;;12.47;4.43;;;25.50;56.50;;;-142.21;73.07;112049.66;5052454;28;20214;-75
2022/06/20 04:50:16;;;;;;;8.50;3.30;;;25.60;56.00;;;-142.21;70.16;112049.66;5052353;28;20193;-76
2022/06/20 04:52:45;;;;;;;8.33;3.13;;;25.60;54.80;;;-142.21;69.03;112049.66;5051706;28;20276;-75
2022/06/20 04:55:17;;;;;;;5.10;2.80;;;25.50;54.40;;;-142.21;70.15;112049.66;5052174;28;20292;-77
2022/06/20 04:57:46;;;;;;;6.53;3.30;;;25.30;55.00;;;-142.21;73.27;112049.66;5051431;28;20276;-74
2022/06/20 05:00:21;;;;;;;4.70;2.73;;;25.00;56.10;;;-142.21;73.32;112049.66;5051718;28;20288;-74
2022/06/20 05:02:52;;;;;;;6.03;2.93;;;24.90;56.30;;;-142.21;72.54;112049.66;5051622;28;20200;-75
2022/06/20 05:05:31;;;;;;;4.87;3.00;;;25.00;55.90;;;-142.21;71.91;112049.66;5051932;28;20228;-75
2022/06/20 05:08:00;;;;;;;5.50;2.83;;;25.10;55.80;;;-142.21;72.63;112049.66;5052130;28;20245;-74
2022/06/20 05:10:37;;;;;;;7.63;2.93;;;25.00;56.00;;;-142.21;72.90;112049.66;5051896;28;20293;-74
2022/06/20 05:13:22;;;;;;;7.20;3.00;;;24.90;56.40;;;-142.21;73.36;112049.66;5051539;28;20285;-76
2022/06/20 05:15:52;;;;;;;4.60;2.57;;;25.00;56.40;;;-142.21;73.01;112049.66;5051613;28;20193;-74
2022/06/20 05:21:25;;;;;;;7.60;2.90;;;24.90;56.60;;;-142.21;73.85;112049.66;5051851;28;20208;-75
2022/06/20 05:23:58;;;;;;;4.17;2.60;;;25.00;56.70;;;-142.21;76.47;112049.66;5051497;28;20581;-76
2022/06/20 05:26:35;;;;;;;10.97;3.23;;;25.20;56.90;;;-142.21;75.83;112049.66;5051764;28;20284;-75
2022/06/20 05:29:10;;;;;;;5.97;2.70;;;25.30;57.20;;;-142.21;74.26;112049.66;5051534;28;20338;-76
2022/06/20 05:31:46;;;;;;;4.10;2.37;;;25.40;56.30;;;-142.21;74.41;112049.66;5055060;28;20221;-75
2022/06/20 05:34:23;;;;;;;4.37;2.70;;;25.50;56.40;;;-142.21;72.59;112049.66;5055376;28;20695;-74
2022/06/20 05:37:03;;;;;;;4.30;3.17;;;25.60;56.00;;;-142.21;72.55;112049.66;5054717;28;20312;-74
2022/06/20 05:39:38;;;;;;;6.97;3.37;;;25.40;56.00;;;-142.21;72.21;112049.66;5055427;28;20221;-75
2022/06/20 05:42:10;;;;;;;6.40;3.03;;;25.40;55.80;;;-142.21;72.03;112049.66;5054903;28;20193;-75
2022/06/20 05:44:38;;;;;;;5.20;3.30;;;25.50;55.60;;;-142.21;72.14;112049.66;5054723;28;20316;-75
2022/06/20 05:47:12;;;;;;;4.63;2.77;;;25.60;55.30;;;-142.21;71.86;112049.66;5055373;28;20317;-75
2022/06/20 05:49:54;;;;;;;6.07;2.90;;;25.60;55.40;;;-142.21;70.85;112049.66;5054937;28;20196;-75
2022/06/20 05:52:30;;;;;;;6.03;3.20;;;25.70;55.30;;;-142.21;71.83;112049.66;5055187;28;20194;-75
2022/06/20 05:55:05;;;;;;;5.20;2.80;;;25.60;55.30;;;-142.21;71.06;112049.66;5055108;28;20312;-75
2022/06/20 05:57:42;;;;;;;4.97;2.60;;;25.70;55.30;;;-142.21;71.68;112049.66;5054618;28;20237;-75
2022/06/20 06:00:19;;;;;;;8.87;3.00;;;25.80;55.30;;;-142.21;70.80;112049.66;5054685;28;20189;-76
2022/06/20 06:02:52;;;;;;;7.33;3.07;;;25.90;55.10;;;-142.21;69.96;112049.66;5036490;28;20293;-76
2022/06/20 06:05:29;;;;;;;3.13;2.50;;;25.90;54.70;;;-142.21;74.58;112049.66;5054608;28;20277;-75
2022/06/20 06:08:05;;;;;;;6.93;2.70;;;25.90;55.70;;;-142.21;72.33;112049.66;5054393;28;20585;-75
2022/06/20 06:10:43;;;;;;;9.10;3.23;;;25.90;55.40;;;-142.21;73.53;112049.66;5053586;28;20699;-75
2022/06/20 06:13:24;;;;;;;4.90;2.50;;;26.00;55.60;;;-142.21;74.26;112049.66;5054353;28;20527;-75
2022/06/20 06:19:01;;;;;;;9.47;4.40;;;26.10;54.70;;;-142.21;72.73;112049.66;5054090;28;20189;-74
2022/06/20 06:21:29;;;;;;;6.07;3.17;;;26.10;55.30;;;-142.21;72.02;112049.66;5054627;28;20190;-75
2022/06/20 06:24:01;;;;;;;5.10;2.93;;;26.10;55.20;;;-142.21;72.35;112049.66;5053893;28;20289;-75
2022/06/20 06:26:29;;;;;;;7.63;2.97;;;26.20;55.30;;;-142.21;71.70;112049.66;5055042;28;20197;-75
2022/06/20 06:28:57;;;;;;;5.83;3.47;;;26.30;55.00;;;-142.21;70.86;112049.66;5053541;28;20332;-75
2022/06/20 06:31:30;;;;;;;5.57;3.03;;;26.30;54.80;;;-142.21;71.65;112049.66;5054226;28;20212;-75
2022/06/20 06:34:05;;;;;;;3.67;2.70;;;26.30;55.00;;;-142.21;71.63;112049.66;5053596;28;20281;-75
2022/06/20 06:36:42;;;;;;;6.50;3.00;;;26.40;55.00;;;-142.21;71.92;112049.66;5053937;28;20190;-75
2022/06/20 06:39:17;;;;;;;4.07;2.90;;;26.40;55.00;;;-142.21;72.37;112049.66;5054364;28;20277;-75
2022/06/20 06:41:47;;;;;;;4.60;2.80;;;26.40;55.10;;;-142.21;72.02;112049.66;5052299;28;20221;-75
2022/06/20 06:44:19;;;;;;;5.70;3.67;;;26.40;55.00;;;-142.21;71.65;112049.66;5054024;28;20721;-75
2022/06/20 06:46:52;;;;;;;5.37;3.03;;;26.50;55.60;;;-142.21;70.95;112049.66;5053541;28;20602;-76
2022/06/20 06:49:35;;;;;;;5.30;3.13;;;26.50;54.60;;;-142.21;69.46;112049.66;5053865;28;20714;-75
2022/06/20 06:52:12;;;;;;;5.33;2.80;;;26.60;54.40;;;-142.21;69.34;112049.66;5054176;28;20277;-76
2022/06/20 06:55:01;;;;;;;6.97;3.43;;;26.60;54.50;;;-142.21;68.03;112049.66;5053194;28;20300;-76
2022/06/20 06:57:42;;;;;;;6.57;3.13;;;26.70;54.20;;;-142.21;69.08;112049.66;5054158;28;20202;-75
2022/06/20 07:00:26;;;;;;;5.47;2.60;;;26.70;54.20;;;-142.21;69.41;112049.66;5053799;28;20198;-75
2022/06/20 07:03:01;;;;;;;7.13;3.07;;;26.80;54.30;;;-142.21;68.69;112049.66;5053372;28;20706;-76
2022/06/20 07:05:35;;;;;;;6.67;3.33;;;26.90;54.30;;;-142.21;68.06;112049.66;5053449;28;20275;-76
2022/06/20 07:08:13;;;;;;;6.07;2.80;;;26.90;54.00;;;-142.21;66.67;112049.66;5053749;28;20213;-74
2022/06/20 07:10:52;;;;;;;6.50;2.67;;;27.00;53.90;;;-142.21;64.02;112049.66;5052460;28;20190;-75
2022/06/20 07:13:35;;;;;;;6.17;2.80;;;27.00;53.00;;;-142.21;62.88;112049.66;5053660;28;20229;-75
2022/06/20 07:16:06;;;;;;;6.43;2.80;;;27.00;52.80;;;-142.21;65.10;112049.66;5053662;28;20193;-75
2022/06/20 07:18:43;;;;;;;5.07;2.63;;;27.00;53.00;;;-142.21;65.55;112049.66;5053279;28;20187;-75
2022/06/20 07:21:15;;;;;;;5.77;2.97;;;27.10;53.00;;;-142.21;63.84;112049.66;5053397;28;20190;-75
2022/06/20 07:23:44;;;;;;;9.10;3.40;;;27.20;52.80;;;-142.21;62.69;112049.66;5052145;28;20712;-77
2022/06/20 07:26:18;;;;;;;6.43;3.23;;;27.20;52.80;;;-142.21;64.14;112049.66;5053401;28;20206;-75
2022/06/20 07:28:55;;;;;;;4.87;2.60;;;27.30;52.70;;;-142.21;63.64;112049.66;5052224;28;20242;-74
2022/06/20 07:31:28;;;;;;;4.60;2.70;;;27.40;52.60;;;-142.21;61.68;112049.66;5053009;28;20284;-75
2022/06/20 07:34:03;;;;;;;4.63;2.90;;;27.60;52.20;;;-142.21;59.74;112049.66;5052304;28;20230;-75
2022/06/20 07:36:41;;;;;;;3.77;2.90;;;27.70;51.90;;;-142.21;59.12;112049.66;5052950;28;20277;-75
2022/06/20 07:39:22;;;;;;;4.93;2.70;;;27.80;51.10;;;-142.21;57.54;112049.66;5052497;28;20694;-75
2022/06/20 07:41:58;;;;;;;4.57;3.00;;;27.90;51.20;;;-142.21;58.70;112049.66;5052244;28;20203;-75
2022/06/20 07:44:36;;;;;;;6.43;2.83;;;28.00;50.70;;;-142.21;59.32;112049.66;5053205;28;20249;-75
2022/06/20 07:47:11;;;;;;;11.00;4.03;;;28.10;51.40;;;-142.21;56.95;112049.66;5052990;28;20195;-75
2022/06/20 07:49:46;;;;;;;5.80;2.80;;;28.20;50.60;;;-142.21;57.03;112049.66;5052331;28;20286;-75
2022/06/20 07:52:20;;;;;;;5.60;3.10;;;28.20;50.40;;;-142.21;59.44;112049.66;5052123;28;20194;-75
2022/06/20 07:54:53;;;;;;;5.20;2.87;;;28.30;50.90;;;-142.21;56.10;112049.66;5052067;28;20256;-76
2022/06/20 07:57:28;;;;;;;3.83;3.27;;;28.30;50.00;;;-142.21;58.78;112049.66;5052636;28;20204;-75
2022/06/20 08:00:09;;;;;;;6.23;3.20;;;28.30;50.80;;;-142.21;59.76;112049.66;5052061;28;20270;-75
2022/06/20 08:02:46;;;;;;;6.57;2.90;;;28.30;50.80;;;-142.21;59.14;112049.66;5052682;28;20192;-75
2022/06/20 08:05:22;;;;;;;5.60;3.30;;;28.30;50.90;;;-142.21;60.06;112049.66;5052642;28;20242;-76
2022/06/20 08:08:01;;;;;;;6.90;3.17;;;28.30;50.90;;;-142.21;57.02;112049.66;5051793;28;20214;-75
2022/06/20 08:10:35;;;;;;;5.60;3.30;;;28.40;50.20;;;-142.21;58.95;112049.66;5052743;28;20594;-77
2022/06/20 08:13:16;;;;;;;7.70;3.30;;;28.50;50.60;;;-142.21;59.71;112049.66;5052231;28;20546;-75
2022/06/20 08:15:53;;;;;;;8.43;3.50;;;28.70;50.80;;;-142.21;56.14;112049.66;5052210;28;20201;-74
2022/06/20 08:18:21;;;;;;;6.50;3.07;;;28.70;49.90;;;-142.21;59.39;112049.66;5052634;28;20188;-75
2022/06/20 08:20:56;;;;;;;4.13;3.23;;;28.90;50.30;;;-142.21;58.52;112049.66;5052290;28;20262;-74
2022/06/20 08:23:33;;;;;;;5.77;3.30;;;29.00;50.50;;;-142.21;54.54;112049.66;5051924;28;20245;-75
2022/06/20 08:26:08;;;;;;;5.90;3.60;;;29.10;49.60;;;-142.21;56.68;112049.66;5051998;28;20207;-75
2022/06/20 08:28:46;;;;;;;6.73;3.30;;;29.00;49.60;;;-142.21;58.31;112049.66;5052319;28;20219;-75
2022/06/20 08:31:23;;;;;;;4.80;3.30;;;29.10;50.20;;;-142.21;58.53;112049.66;5052468;28;20242;-75
2022/06/20 08:33:58;;;;;;;7.33;3.77;;;29.10;50.30;;;-142.21;59.30;112049.66;5051854;28;20233;-75
2022/06/20 08:36:35;;;;;;;5.77;3.13;;;29.10;50.50;;;-142.21;58.11;112049.66;5052130;28;20294;-75
2022/06/20 08:39:10;;;;;;;6.13;3.67;;;29.20;50.20;;;-142.21;57.66;112049.66;5051965;28;20271;-75
2022/06/20 08:42:26;;;;;;;6.87;3.57;;;29.30;50.20;;;-142.21;54.03;112049.66;5052266;28;20282;-75
2022/06/20 08:45:32;;;;;;;3.93;3.50;;;29.30;49.30;;;-142.21;54.59;112049.66;5051863;28;20280;-75
2022/06/20 08:49:04;;;;;;;5.90;3.60;;;29.10;48.90;;;-142.21;54.26;112049.66;5051695;28;20209;-75
2022/06/20 08:52:15;;;;;;;3.57;3.23;;;28.90;49.20;;;-142.21;54.79;112049.66;5016073;28;20231;-76
2022/06/20 08:55:45;;;;;;;7.93;3.77;;;28.90;49.50;;;-142.21;54.66;112049.66;5051635;28;20224;-74
2022/06/20 08:58:31;;;;;;;5.13;3.63;;;28.80;49.30;;;-142.21;55.57;112049.66;5048107;28;20213;-74
2022/06/20 09:01:10;;;;;;;5.87;3.90;;;28.60;49.80;;;-142.21;55.38;112049.66;5051112;28;20287;-74
2022/06/20 09:04:14;;;;;;;8.63;4.20;;;28.70;50.10;;;-142.21;55.67;112049.66;5052279;28;20249;-75
2022/06/20 09:07:23;;;;;;;8.53;4.43;;;28.70;50.20;;;-142.21;54.79;112049.66;5055442;28;20199;-76
2022/06/20 09:10:21;;;;;;;5.40;3.97;;;28.70;50.20;;;-142.21;56.11;112049.66;5038518;28;20216;-75
2022/06/20 09:13:32;;;;;;;6.73;3.97;;;28.60;50.70;;;-142.21;57.08;112049.66;5055295;28;20647;-75
2022/06/20 09:16:20;;;;;;;7.77;4.73;;;28.70;51.20;;;-142.21;55.83;112049.66;5055294;28;20207;-75
2022/06/20 09:19:21;;;;;;;11.30;5.47;;;28.90;50.80;;;-142.21;55.41;112049.66;5055026;28;20228;-75
2022/06/20 09:22:03;;;;;;;7.97;4.77;;;29.10;50.70;;;-142.21;56.45;112049.66;5054904;28;20243;-75
2022/06/20 09:24:51;;;;;;;6.03;4.50;;;29.10;50.90;;;-142.21;55.34;112049.66;5055903;28;20220;-75
2022/06/20 09:27:27;;;;;;;5.83;5.03;;;29.20;51.30;;;-142.21;54.21;112049.66;5055719;28;20211;-75
2022/06/20 09:30:11;;;;;;;5.23;4.33;;;29.30;50.40;;;-142.21;55.20;112049.66;5054768;28;20239;-75
2022/06/20 09:33:32;;;;;;;6.80;5.27;;;29.30;50.70;;;-142.21;54.88;112049.66;5055464;28;20647;-74
2022/06/20 09:37:06;;;;;;;9.00;4.57;;;29.50;50.70;;;-142.21;54.66;112049.66;5054316;28;20710;-76
2022/06/20 09:39:54;;;;;;;8.07;4.57;;;29.50;50.40;;;-142.21;55.30;112049.66;5029737;28;20240;-75
2022/06/20 09:42:38;;;;;;;7.77;4.30;;;29.40;50.50;;;-142.21;56.13;112049.66;5056927;28;20274;-75
2022/06/20 09:45:18;;;;;;;8.47;5.10;;;29.30;50.80;;;-142.21;56.50;112049.66;5074637;28;20610;-75
2022/06/20 09:48:02;;;;;;;6.90;4.80;;;29.30;51.70;;;-142.21;57.85;112049.66;5074650;28;20242;-75
2022/06/20 09:50:59;;;;;;;6.73;4.90;;;29.20;51.40;;;-142.21;56.66;112049.66;5074553;28;20697;-75
2022/06/20 09:53:49;;;;;;;7.70;4.50;;;29.30;51.30;;;-142.21;56.92;112049.66;5074980;28;20530;-74
2022/06/20 09:56:25;;;;;;;6.53;5.07;;;29.30;51.10;;;-142.21;57.81;112049.66;5075287;28;20216;-74
2022/06/20 09:59:04;;;;;;;9.80;4.57;;;29.40;51.50;;;-142.21;57.11;112049.66;5074362;28;20196;-76
2022/06/20 10:01:38;;;;;;;6.97;4.53;;;29.40;51.20;;;-142.21;56.61;112049.66;5058865;28;20279;-75
2022/06/20 10:04:18;;;;;;;7.23;4.63;;;29.50;51.00;;;-142.21;55.97;112049.66;5053665;28;20307;-75
2022/06/20 10:07:00;;;;;;;9.40;4.33;;;29.40;50.90;;;-142.21;57.08;112049.66;5052458;28;20650;-76
2022/06/20 10:09:42;;;;;;;6.17;4.70;;;29.20;51.40;;;-142.21;57.88;112049.66;5055006;28;20220;-75
2022/06/20 10:12:21;;;;;;;8.03;4.73;;;29.30;51.50;;;-142.21;57.85;112049.66;5054305;28;20284;-75
2022/06/20 10:15:06;;;;;;;7.43;4.87;;;29.40;51.60;;;-142.21;56.70;112049.66;5020743;28;20211;-75
2022/06/20 10:17:50;;;;;;;9.97;4.43;;;29.50;51.50;;;-142.21;56.43;112049.66;5053944;28;20227;-75
2022/06/20 10:20:34;;;;;;;8.97;4.43;;;29.50;51.20;;;-142.21;57.98;112049.66;5054609;28;20233;-75
2022/06/20 10:23:29;;;;;;;8.90;4.53;;;29.60;51.70;;;-142.21;55.61;112049.66;5054248;28;20276;-75
2022/06/20 10:26:32;;;;;;;8.63;4.27;;;29.80;50.80;;;-142.21;54.93;112049.66;5054006;28;20682;-75
2022/06/20 10:29:16;;;;;;;9.27;4.50;;;30.00;50.60;;;-142.21;54.03;112049.66;5053454;28;20702;-75
2022/06/20 10:31:51;;;;;;;6.63;3.87;;;30.00;50.40;;;-142.21;54.27;112049.66;5053954;28;20283;-75
2022/06/20 10:34:37;;;;;;;7.60;4.53;;;30.00;50.20;;;-142.21;57.62;112049.66;5054752;28;20242;-75
2022/06/20 10:37:24;;;;;;;7.77;4.10;;;30.20;51.00;;;-142.21;54.00;112049.66;5054038;28;20276;-75
2022/06/20 10:40:01;;;;;;;10.10;4.47;;;30.30;50.00;;;-142.21;53.70;112049.66;5053901;28;20185;-76
2022/06/20 10:42:35;;;;;;;6.87;4.40;;;30.30;50.00;;;-142.21;53.88;112049.66;5054140;28;20266;-76
2022/06/20 10:45:33;;;;;;;6.47;4.97;;;30.30;49.90;;;-142.21;56.22;112049.66;5053562;28;20645;-75
2022/06/20 10:48:39;;;;;;;6.67;4.30;;;30.40;50.90;;;-142.21;55.06;112049.66;5052866;28;20213;-75
2022/06/20 10:51:21;;;;;;;6.07;4.00;;;30.50;50.10;;;-142.21;55.16;112049.66;5053740;28;20263;-75
2022/06/20 10:54:04;;;;;;;7.07;4.03;;;30.60;49.90;;;-142.21;53.84;112049.66;5053874;28;20221;-74
2022/06/20 10:56:44;;;;;;;7.40;4.23;;;30.60;49.40;;;-142.21;52.58;112049.66;5054154;28;20209;-74
2022/06/20 10:59:32;;;;;;;6.20;4.10;;;30.60;49.10;;;-142.21;54.25;112049.66;5052970;28;20228;-75